Terminal Aerodrome Forecast
Issued by NWS Wilmington, NC

Home | Current Version | Previous Version | Text Only | Print | Product List | Glossary On
Versions: 1 2 3 4 5 6 7 8 9 10 11 12 13 14 15 16 17 18 19 20
000
FTUS42 KILM 180520
TAFILM
TAF
KILM 180520Z 1806/1906 00000KT P6SM VCSH OVC080
      TEMPO 1810/1813 4SM -SHRA BR SCT005 BKN015
     FM181300 05005KT 5SM -SHRA BR SCT010 OVC025
     FM182100 09005KT P6SM VCSH SCT015 BKN040
     FM190200 05003KT P6SM BKN080=

USA.gov is the U.S. government's official web portal to all federal, state and local government web resources and services.